createdAt,value
2018-07-17T00:02:31.649Z,"    0"
2018-07-17T00:07:28.466Z,"    0"
2018-07-17T00:12:23.791Z,"    0"
2018-07-17T00:17:19.549Z,"    0"
2018-07-17T00:22:16.323Z,"    0"
2018-07-17T00:27:11.866Z,"    0"
2018-07-17T00:32:07.800Z,"    0"
2018-07-17T00:37:03.986Z,"    0"
2018-07-17T00:41:59.718Z,"    0"
2018-07-17T00:46:55.892Z,"    0"
2018-07-17T00:51:52.807Z,"    0"
2018-07-17T00:56:48.545Z,"    0"
2018-07-17T01:01:44.571Z,"    0"
2018-07-17T01:06:41.608Z,"    0"
2018-07-17T01:11:37.210Z,"    0"
2018-07-17T01:16:34.003Z,"    0"
2018-07-17T01:21:29.656Z,"    0"
2018-07-17T01:26:25.175Z,"    0"
2018-07-17T01:31:21.021Z,"    0"
2018-07-17T01:36:18.062Z,"    0"
2018-07-17T01:41:13.800Z,"    0"
2018-07-17T01:46:09.497Z,"    0"
2018-07-17T01:51:06.630Z,"    0"
2018-07-17T01:56:02.237Z,"    0"
2018-07-17T02:00:59.223Z,"    0"
2018-07-17T02:05:54.880Z,"    0"
2018-07-17T02:10:50.820Z,"    0"
2018-07-17T02:15:46.736Z,"    0"
2018-07-17T02:20:42.768Z,"    0"
2018-07-17T02:25:38.400Z,"    0"
2018-07-17T02:30:34.240Z,"    0"
2018-07-17T02:35:29.909Z,"    0"
2018-07-17T02:40:26.729Z,"    0"
2018-07-17T02:45:22.235Z,"    0"
2018-07-17T02:50:18.043Z,"    4"
2018-07-17T02:55:13.692Z,"    4"
2018-07-17T03:00:09.974Z,"    4"
2018-07-17T03:05:05.924Z,"   16"
2018-07-17T03:10:01.872Z,"   24"
2018-07-17T03:14:58.635Z,"   40"
2018-07-17T03:19:55.148Z,"   64"
2018-07-17T03:24:51.703Z,"  100"
2018-07-17T03:29:47.423Z,"  148"
2018-07-17T03:34:43.224Z,"  216"
2018-07-17T03:39:39.182Z,"  292"
2018-07-17T03:44:36.364Z,"  372"
2018-07-17T03:49:32.313Z,"  448"
2018-07-17T03:54:28.222Z,"  536"
2018-07-17T03:59:24.119Z,"  648"
2018-07-17T04:04:19.940Z,"  872"
2018-07-17T04:09:16.547Z," 1076"
2018-07-17T04:14:13.055Z," 1264"
2018-07-17T04:19:09.181Z," 1428"
2018-07-17T04:24:05.801Z," 1592"
2018-07-17T04:29:03.228Z," 1796"
2018-07-17T04:33:59.612Z," 3576"
2018-07-17T04:38:56.362Z," 4480"
2018-07-17T04:43:53.512Z," 5256"
2018-07-17T04:48:50.787Z," 5908"
2018-07-17T04:53:48.413Z," 6372"
2018-07-17T04:58:45.080Z," 6084"
2018-07-17T05:03:41.429Z," 5700"
2018-07-17T05:08:38.122Z," 8776"
2018-07-17T05:13:35.047Z," 9764"
2018-07-17T05:18:32.859Z," 9520"
2018-07-17T05:23:28.740Z," 7896"
2018-07-17T05:28:25.007Z," 5620"
2018-07-17T05:33:20.426Z," 4692"
2018-07-17T05:38:15.862Z," 4876"
2018-07-17T05:43:11.830Z," 9132"
2018-07-17T05:48:08.779Z,16640
2018-07-17T05:53:06.356Z," 7676"
2018-07-17T05:58:02.224Z," 9540"
2018-07-17T06:02:58.165Z," 5200"
2018-07-17T06:07:53.531Z," 5156"
2018-07-17T06:12:48.873Z," 5604"
2018-07-17T06:17:45.792Z," 5264"
2018-07-17T06:22:41.078Z," 5324"
2018-07-17T06:27:36.729Z," 5588"
2018-07-17T06:32:33.541Z," 5728"
2018-07-17T06:37:29.651Z," 6888"
2018-07-17T06:42:25.603Z," 6260"
2018-07-17T06:47:22.492Z," 5972"
2018-07-17T06:52:19.233Z," 7088"
2018-07-17T06:57:15.000Z," 6532"
2018-07-17T07:02:10.835Z," 6432"
2018-07-17T07:07:06.763Z," 6268"
2018-07-17T07:12:03.672Z," 6352"
2018-07-17T07:16:59.457Z," 6516"
2018-07-17T07:21:55.428Z," 6316"
2018-07-17T07:26:51.520Z," 6252"
2018-07-17T07:31:47.484Z," 6484"
2018-07-17T07:36:43.271Z," 7884"
2018-07-17T07:41:39.323Z," 6816"
2018-07-17T07:46:35.989Z," 6624"
2018-07-17T07:51:33.201Z," 8068"
2018-07-17T07:56:29.383Z,41920
2018-07-17T08:01:30.623Z,51136
2018-07-17T08:06:30.169Z,32992
2018-07-17T08:11:27.941Z,46912
2018-07-17T08:16:25.672Z,42304
2018-07-17T08:21:22.926Z,47104
2018-07-17T08:26:21.034Z,36448
2018-07-17T08:31:18.604Z,44128
2018-07-17T08:36:16.162Z,40672
2018-07-17T08:41:12.675Z,42720
2018-07-17T08:46:09.290Z,40768
2018-07-17T08:51:06.848Z,47648
2018-07-17T08:56:03.780Z,42368
2018-07-17T09:00:59.269Z,51456
2018-07-17T09:05:56.009Z,46496
2018-07-17T09:10:53.398Z,51520
2018-07-17T09:15:49.482Z,50688
2018-07-17T09:20:46.741Z,55520
2018-07-17T09:25:43.107Z,42912
2018-07-17T09:30:39.298Z,56832
2018-07-17T09:35:35.342Z,54912
2018-07-17T09:40:31.599Z,57536
2018-07-17T09:45:27.844Z,57824
2018-07-17T09:50:24.043Z,57088
2018-07-17T09:55:21.016Z,55264
2018-07-17T10:00:17.096Z,63936
2018-07-17T10:05:13.754Z,61760
2018-07-17T10:10:10.116Z,53536
2018-07-17T10:15:05.320Z,51840
2018-07-17T10:20:01.833Z,56032
2018-07-17T10:24:58.255Z,61664
2018-07-17T10:29:54.591Z,56960
2018-07-17T10:34:52.220Z,32480
2018-07-17T10:39:46.405Z,56480
2018-07-17T10:44:43.136Z,59392
2018-07-17T10:49:40.220Z,50240
2018-07-17T10:54:37.109Z,58336
2018-07-17T10:59:34.374Z,46848
2018-07-17T11:04:30.624Z,52000
2018-07-17T11:09:26.885Z,51072
2018-07-17T11:14:23.256Z,66176
2018-07-17T11:19:19.832Z,69824
2018-07-17T11:24:16.506Z,66368
2018-07-17T11:29:13.948Z,83840
2018-07-17T11:34:10.643Z,65696
2018-07-17T11:39:07.236Z,71168
2018-07-17T11:44:03.932Z,91104
2018-07-17T11:48:56.439Z," 8292"
2018-07-17T11:53:53.788Z,67392
2018-07-17T11:58:51.474Z,75648
2018-07-17T12:03:48.244Z,72544
2018-07-17T12:08:44.896Z,70304
2018-07-17T12:13:40.311Z,74112
2018-07-17T12:18:38.076Z,91872
2018-07-17T12:23:34.379Z,79104
2018-07-17T12:28:30.882Z," 8956"
2018-07-17T12:33:27.043Z,18592
2018-07-17T12:38:22.386Z,57024
2018-07-17T12:43:17.123Z,60896
2018-07-17T12:48:13.962Z,71264
2018-07-17T12:53:09.325Z,87520
2018-07-17T12:58:06.273Z,95488
2018-07-17T13:03:03.862Z,65440
2018-07-17T13:08:00.901Z,59488
2018-07-17T13:12:56.373Z,59008
2018-07-17T13:17:53.222Z," 9068"
2018-07-17T13:22:48.387Z,75520
2018-07-17T13:27:43.072Z,75488
2018-07-17T13:32:39.546Z,81984
2018-07-17T13:37:35.677Z,58944
2018-07-17T13:42:31.600Z," 9812"
2018-07-17T13:47:27.058Z,48768
2018-07-17T13:52:23.020Z,58304
2018-07-17T13:57:19.387Z,64000
2018-07-17T14:02:15.363Z,67424
2018-07-17T14:07:11.009Z,61312
2018-07-17T14:12:06.702Z," 5460"
2018-07-17T14:17:02.127Z," 6460"
2018-07-17T14:21:58.088Z," 5452"
2018-07-17T14:26:52.865Z," 5844"
2018-07-17T14:31:49.227Z," 4288"
2018-07-17T14:36:44.187Z," 4540"
2018-07-17T14:41:39.936Z," 4124"
2018-07-17T14:46:35.543Z," 4096"
2018-07-17T14:51:31.406Z," 3924"
2018-07-17T14:56:27.383Z," 4236"
2018-07-17T15:01:23.374Z," 4856"
2018-07-17T15:06:19.619Z," 5900"
2018-07-17T15:11:15.689Z," 5356"
2018-07-17T15:16:12.765Z," 4800"
2018-07-17T15:21:08.449Z," 4884"
2018-07-17T15:26:04.640Z," 5416"
2018-07-17T15:31:00.653Z," 4152"
2018-07-17T15:35:56.580Z," 5692"
2018-07-17T15:40:52.599Z," 5748"
2018-07-17T15:45:49.169Z," 4468"
2018-07-17T15:50:44.885Z," 3792"
2018-07-17T15:55:40.851Z," 4080"
2018-07-17T16:00:36.901Z," 3908"
2018-07-17T16:05:32.910Z," 3788"
2018-07-17T16:10:28.707Z," 3088"
2018-07-17T16:15:24.646Z," 2820"
2018-07-17T16:20:20.484Z," 2752"
2018-07-17T16:25:16.600Z," 2676"
2018-07-17T16:30:12.813Z," 2404"
2018-07-17T16:35:08.840Z," 2996"
2018-07-17T16:40:04.788Z," 2764"
2018-07-17T16:45:00.761Z," 2672"
2018-07-17T16:49:56.857Z," 2444"
2018-07-17T16:54:52.671Z," 2336"
2018-07-17T16:59:49.723Z," 2264"
2018-07-17T17:04:46.475Z," 2212"
2018-07-17T17:09:43.391Z," 2304"
2018-07-17T17:14:40.120Z," 2248"
2018-07-17T17:19:37.088Z," 2220"
2018-07-17T17:24:32.752Z," 2112"
2018-07-17T17:29:29.629Z," 2116"
2018-07-17T17:34:26.488Z," 2088"
2018-07-17T17:39:22.307Z," 2252"
2018-07-17T17:44:17.999Z," 2480"
2018-07-17T17:49:14.993Z," 2244"
2018-07-17T17:54:10.598Z," 2364"
2018-07-17T17:59:06.713Z," 2264"
2018-07-17T18:04:03.199Z," 2140"
2018-07-17T18:08:59.035Z," 1776"
2018-07-17T18:13:55.983Z," 1604"
2018-07-17T18:18:51.716Z," 1588"
2018-07-17T18:23:47.607Z," 1548"
2018-07-17T18:28:43.450Z," 1756"
2018-07-17T18:33:40.534Z," 1760"
2018-07-17T18:38:36.220Z," 1628"
2018-07-17T18:43:32.197Z," 1828"
2018-07-17T18:48:29.233Z," 1560"
2018-07-17T18:53:24.889Z," 1064"
2018-07-17T18:58:21.154Z,"  756"
2018-07-17T19:03:18.004Z,"  620"
2018-07-17T19:08:13.428Z,"  536"
2018-07-17T19:13:09.403Z,"  460"
2018-07-17T19:18:05.518Z,"  380"
2018-07-17T19:23:02.383Z,"  316"
2018-07-17T19:27:58.902Z,"  220"
2018-07-17T19:32:54.500Z,"  168"
2018-07-17T19:37:50.433Z,"  120"
2018-07-17T19:42:47.420Z,"   88"
2018-07-17T19:47:43.080Z,"   60"
2018-07-17T19:52:38.924Z,"   36"
2018-07-17T19:57:34.901Z,"   24"
2018-07-17T20:02:30.614Z,"   12"
2018-07-17T20:07:26.582Z,"    8"
2018-07-17T20:12:22.335Z,"    4"
2018-07-17T20:17:19.232Z,"    0"
2018-07-17T20:22:16.201Z,"    0"
2018-07-17T20:27:11.721Z,"    0"
2018-07-17T20:32:07.429Z,"    0"
2018-07-17T20:37:03.459Z,"    0"
2018-07-17T20:41:59.494Z,"    0"
2018-07-17T20:46:55.360Z,"    0"
2018-07-17T20:51:51.173Z,"    0"
2018-07-17T20:56:47.230Z,"    0"
2018-07-17T21:01:43.113Z,"    0"
2018-07-17T21:06:39.667Z,"    0"
2018-07-17T21:11:35.958Z,"    0"
2018-07-17T21:16:31.889Z,"    0"
2018-07-17T21:21:27.876Z,"    0"
2018-07-17T21:26:24.929Z,"    0"
2018-07-17T21:31:20.444Z,"    0"
2018-07-17T21:36:16.242Z,"    0"
2018-07-17T21:41:13.192Z,"    0"
2018-07-17T21:46:09.195Z,"    0"
2018-07-17T21:51:04.992Z,"    0"
2018-07-17T21:56:00.851Z,"    0"
2018-07-17T22:00:56.697Z,"    0"
2018-07-17T22:05:52.352Z,"    0"
2018-07-17T22:10:48.490Z,"    0"
2018-07-17T22:15:44.709Z,"    0"
2018-07-17T22:20:41.538Z,"    0"
2018-07-17T22:25:37.723Z,"    0"
2018-07-17T22:30:35.197Z,"    0"
2018-07-17T22:35:30.635Z,"    0"
2018-07-17T22:40:26.645Z,"    0"
2018-07-17T22:45:23.229Z,"    0"
2018-07-17T22:50:19.246Z,"    0"
2018-07-17T22:55:15.402Z,"    0"
2018-07-17T23:00:12.304Z,"    0"
2018-07-17T23:05:07.776Z,"    0"
2018-07-17T23:10:03.969Z,"    0"
2018-07-17T23:14:59.812Z,"    0"
2018-07-17T23:19:56.042Z,"    0"
2018-07-17T23:24:51.966Z,"    0"
2018-07-17T23:29:48.224Z,"    0"
2018-07-17T23:34:44.180Z,"    0"
2018-07-17T23:39:40.902Z,"    0"
2018-07-17T23:44:37.159Z,"    0"
2018-07-17T23:49:32.661Z,"    0"
2018-07-17T23:54:29.389Z,"    0"
2018-07-17T23:59:24.893Z,"    0"
